sensor_id;sensor_type;location;lat;lon;timestamp;P1;durP1;ratioP1;P2;durP2;ratioP2
25731;SDS011;13585;50.864;4.406;2023-06-14T00:01:21;7.55;;;4.50;;
25731;SDS011;13585;50.864;4.406;2023-06-14T00:03:47;6.85;;;5.00;;
25731;SDS011;13585;50.864;4.406;2023-06-14T00:06:13;5.82;;;4.78;;
25731;SDS011;13585;50.864;4.406;2023-06-14T00:08:39;6.72;;;4.32;;
25731;SDS011;13585;50.864;4.406;2023-06-14T00:11:05;5.60;;;4.15;;
25731;SDS011;13585;50.864;4.406;2023-06-14T00:13:31;6.63;;;4.50;;
25731;SDS011;13585;50.864;4.406;2023-06-14T00:15:57;5.82;;;4.32;;
25731;SDS011;13585;50.864;4.406;2023-06-14T00:18:23;5.30;;;4.40;;
25731;SDS011;13585;50.864;4.406;2023-06-14T00:20:54;5.78;;;3.85;;
25731;SDS011;13585;50.864;4.406;2023-06-14T00:23:20;5.55;;;4.22;;
25731;SDS011;13585;50.864;4.406;2023-06-14T00:25:46;5.45;;;4.65;;
25731;SDS011;13585;50.864;4.406;2023-06-14T00:28:12;7.13;;;4.50;;
25731;SDS011;13585;50.864;4.406;2023-06-14T00:30:38;4.47;;;3.92;;
25731;SDS011;13585;50.864;4.406;2023-06-14T00:33:04;5.63;;;4.55;;
25731;SDS011;13585;50.864;4.406;2023-06-14T00:35:29;8.20;;;4.68;;
25731;SDS011;13585;50.864;4.406;2023-06-14T00:37:55;6.72;;;4.60;;
25731;SDS011;13585;50.864;4.406;2023-06-14T00:40:21;6.05;;;4.70;;
25731;SDS011;13585;50.864;4.406;2023-06-14T00:42:47;6.30;;;4.72;;
25731;SDS011;13585;50.864;4.406;2023-06-14T00:45:13;6.53;;;4.25;;
25731;SDS011;13585;50.864;4.406;2023-06-14T00:47:39;5.40;;;4.18;;
25731;SDS011;13585;50.864;4.406;2023-06-14T00:50:07;5.15;;;3.92;;
25731;SDS011;13585;50.864;4.406;2023-06-14T00:52:34;5.13;;;4.28;;
25731;SDS011;13585;50.864;4.406;2023-06-14T00:54:59;6.20;;;4.53;;
25731;SDS011;13585;50.864;4.406;2023-06-14T00:57:26;6.72;;;4.40;;
25731;SDS011;13585;50.864;4.406;2023-06-14T00:59:52;6.80;;;4.32;;
25731;SDS011;13585;50.864;4.406;2023-06-14T01:02:18;7.15;;;4.90;;
25731;SDS011;13585;50.864;4.406;2023-06-14T01:04:45;6.47;;;4.68;;
25731;SDS011;13585;50.864;4.406;2023-06-14T01:12:31;6.38;;;4.43;;
25731;SDS011;13585;50.864;4.406;2023-06-14T01:15:16;5.20;;;4.35;;
25731;SDS011;13585;50.864;4.406;2023-06-14T01:17:43;5.15;;;4.07;;
25731;SDS011;13585;50.864;4.406;2023-06-14T01:20:11;6.70;;;4.38;;
25731;SDS011;13585;50.864;4.406;2023-06-14T01:22:52;5.57;;;4.50;;
25731;SDS011;13585;50.864;4.406;2023-06-14T01:25:19;5.32;;;4.50;;
25731;SDS011;13585;50.864;4.406;2023-06-14T01:27:48;5.82;;;4.47;;
25731;SDS011;13585;50.864;4.406;2023-06-14T01:30:16;7.13;;;4.57;;
25731;SDS011;13585;50.864;4.406;2023-06-14T01:32:42;6.68;;;4.38;;
25731;SDS011;13585;50.864;4.406;2023-06-14T01:35:10;6.85;;;4.82;;
25731;SDS011;13585;50.864;4.406;2023-06-14T01:37:36;6.40;;;4.60;;
25731;SDS011;13585;50.864;4.406;2023-06-14T01:40:03;9.48;;;4.30;;
25731;SDS011;13585;50.864;4.406;2023-06-14T01:42:31;6.47;;;4.90;;
25731;SDS011;13585;50.864;4.406;2023-06-14T01:45:00;8.57;;;4.68;;
25731;SDS011;13585;50.864;4.406;2023-06-14T01:47:27;9.30;;;4.53;;
25731;SDS011;13585;50.864;4.406;2023-06-14T01:49:53;6.20;;;4.38;;
25731;SDS011;13585;50.864;4.406;2023-06-14T01:52:18;5.53;;;4.53;;
25731;SDS011;13585;50.864;4.406;2023-06-14T01:54:44;6.22;;;4.47;;
25731;SDS011;13585;50.864;4.406;2023-06-14T01:57:10;7.75;;;4.78;;
25731;SDS011;13585;50.864;4.406;2023-06-14T01:59:37;7.53;;;4.70;;
25731;SDS011;13585;50.864;4.406;2023-06-14T02:02:02;8.00;;;4.78;;
25731;SDS011;13585;50.864;4.406;2023-06-14T02:04:28;7.93;;;5.20;;
25731;SDS011;13585;50.864;4.406;2023-06-14T02:06:54;7.15;;;5.20;;
25731;SDS011;13585;50.864;4.406;2023-06-14T02:09:19;7.57;;;5.32;;
25731;SDS011;13585;50.864;4.406;2023-06-14T02:11:45;5.85;;;4.88;;
25731;SDS011;13585;50.864;4.406;2023-06-14T02:14:11;7.20;;;4.43;;
25731;SDS011;13585;50.864;4.406;2023-06-14T02:16:37;6.82;;;4.88;;
25731;SDS011;13585;50.864;4.406;2023-06-14T02:19:04;9.00;;;4.82;;
25731;SDS011;13585;50.864;4.406;2023-06-14T02:21:30;7.30;;;4.75;;
25731;SDS011;13585;50.864;4.406;2023-06-14T02:23:55;8.40;;;4.70;;
25731;SDS011;13585;50.864;4.406;2023-06-14T02:26:24;8.38;;;5.35;;
25731;SDS011;13585;50.864;4.406;2023-06-14T02:28:50;7.07;;;4.93;;
25731;SDS011;13585;50.864;4.406;2023-06-14T02:31:16;6.97;;;5.00;;
25731;SDS011;13585;50.864;4.406;2023-06-14T02:33:41;5.72;;;4.75;;
25731;SDS011;13585;50.864;4.406;2023-06-14T02:36:07;7.32;;;4.93;;
25731;SDS011;13585;50.864;4.406;2023-06-14T02:38:32;8.73;;;5.28;;
25731;SDS011;13585;50.864;4.406;2023-06-14T02:40:58;5.32;;;4.32;;
25731;SDS011;13585;50.864;4.406;2023-06-14T02:43:25;8.05;;;4.80;;
25731;SDS011;13585;50.864;4.406;2023-06-14T02:45:50;5.72;;;4.40;;
25731;SDS011;13585;50.864;4.406;2023-06-14T02:48:17;10.68;;;5.18;;
25731;SDS011;13585;50.864;4.406;2023-06-14T02:50:42;6.78;;;5.28;;
25731;SDS011;13585;50.864;4.406;2023-06-14T02:53:08;6.65;;;4.68;;
25731;SDS011;13585;50.864;4.406;2023-06-14T02:55:34;6.57;;;4.82;;
25731;SDS011;13585;50.864;4.406;2023-06-14T02:58:04;8.45;;;5.28;;
25731;SDS011;13585;50.864;4.406;2023-06-14T03:00:30;8.82;;;4.82;;
25731;SDS011;13585;50.864;4.406;2023-06-14T03:02:56;5.40;;;4.90;;
25731;SDS011;13585;50.864;4.406;2023-06-14T03:05:29;8.10;;;5.50;;
25731;SDS011;13585;50.864;4.406;2023-06-14T03:07:55;6.43;;;5.03;;
25731;SDS011;13585;50.864;4.406;2023-06-14T03:10:22;6.47;;;5.65;;
25731;SDS011;13585;50.864;4.406;2023-06-14T03:12:47;8.45;;;5.30;;
25731;SDS011;13585;50.864;4.406;2023-06-14T03:15:13;6.18;;;4.78;;
25731;SDS011;13585;50.864;4.406;2023-06-14T03:17:39;8.43;;;5.60;;
25731;SDS011;13585;50.864;4.406;2023-06-14T03:20:05;6.07;;;5.07;;
25731;SDS011;13585;50.864;4.406;2023-06-14T03:22:32;7.45;;;5.30;;
25731;SDS011;13585;50.864;4.406;2023-06-14T03:24:59;6.85;;;5.07;;
25731;SDS011;13585;50.864;4.406;2023-06-14T03:27:25;6.43;;;4.60;;
25731;SDS011;13585;50.864;4.406;2023-06-14T03:29:53;7.75;;;4.60;;
25731;SDS011;13585;50.864;4.406;2023-06-14T03:32:19;9.25;;;5.40;;
25731;SDS011;13585;50.864;4.406;2023-06-14T03:34:44;11.32;;;5.30;;
25731;SDS011;13585;50.864;4.406;2023-06-14T03:37:10;5.40;;;4.78;;
25731;SDS011;13585;50.864;4.406;2023-06-14T03:39:35;9.32;;;4.97;;
25731;SDS011;13585;50.864;4.406;2023-06-14T03:42:01;7.75;;;5.30;;
25731;SDS011;13585;50.864;4.406;2023-06-14T03:44:27;8.45;;;5.72;;
25731;SDS011;13585;50.864;4.406;2023-06-14T03:46:53;8.85;;;5.00;;
25731;SDS011;13585;50.864;4.406;2023-06-14T03:49:18;6.22;;;5.13;;
25731;SDS011;13585;50.864;4.406;2023-06-14T03:51:44;5.88;;;4.93;;
25731;SDS011;13585;50.864;4.406;2023-06-14T03:54:15;7.35;;;5.43;;
25731;SDS011;13585;50.864;4.406;2023-06-14T03:56:41;5.60;;;4.68;;
25731;SDS011;13585;50.864;4.406;2023-06-14T03:59:06;8.20;;;5.38;;
25731;SDS011;13585;50.864;4.406;2023-06-14T04:01:32;8.55;;;5.05;;
25731;SDS011;13585;50.864;4.406;2023-06-14T04:03:58;6.40;;;4.78;;
25731;SDS011;13585;50.864;4.406;2023-06-14T04:06:24;7.10;;;5.00;;
25731;SDS011;13585;50.864;4.406;2023-06-14T04:08:57;6.63;;;5.18;;
25731;SDS011;13585;50.864;4.406;2023-06-14T04:11:26;7.57;;;5.05;;
25731;SDS011;13585;50.864;4.406;2023-06-14T04:13:51;5.32;;;4.80;;
25731;SDS011;13585;50.864;4.406;2023-06-14T04:16:19;7.40;;;4.95;;
25731;SDS011;13585;50.864;4.406;2023-06-14T04:18:44;6.80;;;5.18;;
25731;SDS011;13585;50.864;4.406;2023-06-14T04:21:11;7.80;;;4.72;;
25731;SDS011;13585;50.864;4.406;2023-06-14T04:23:37;6.35;;;4.80;;
25731;SDS011;13585;50.864;4.406;2023-06-14T04:26:03;8.55;;;4.65;;
25731;SDS011;13585;50.864;4.406;2023-06-14T04:28:29;7.75;;;5.40;;
25731;SDS011;13585;50.864;4.406;2023-06-14T04:30:55;8.35;;;5.25;;
25731;SDS011;13585;50.864;4.406;2023-06-14T04:33:21;9.07;;;5.68;;
25731;SDS011;13585;50.864;4.406;2023-06-14T04:35:50;7.90;;;5.15;;
25731;SDS011;13585;50.864;4.406;2023-06-14T04:38:18;6.82;;;5.32;;
25731;SDS011;13585;50.864;4.406;2023-06-14T04:40:48;6.13;;;5.35;;
25731;SDS011;13585;50.864;4.406;2023-06-14T04:43:17;8.77;;;5.25;;
25731;SDS011;13585;50.864;4.406;2023-06-14T04:45:52;8.50;;;5.28;;
25731;SDS011;13585;50.864;4.406;2023-06-14T04:48:19;11.48;;;5.30;;
25731;SDS011;13585;50.864;4.406;2023-06-14T04:50:46;6.50;;;4.50;;
25731;SDS011;13585;50.864;4.406;2023-06-14T04:53:11;9.77;;;5.60;;
25731;SDS011;13585;50.864;4.406;2023-06-14T04:55:37;6.20;;;4.90;;
25731;SDS011;13585;50.864;4.406;2023-06-14T04:58:03;6.00;;;5.28;;
25731;SDS011;13585;50.864;4.406;2023-06-14T05:00:30;5.82;;;4.97;;
25731;SDS011;13585;50.864;4.406;2023-06-14T05:02:58;5.47;;;4.90;;
25731;SDS011;13585;50.864;4.406;2023-06-14T05:05:25;6.55;;;5.25;;
25731;SDS011;13585;50.864;4.406;2023-06-14T05:07:51;10.20;;;5.90;;
25731;SDS011;13585;50.864;4.406;2023-06-14T05:10:17;7.68;;;5.35;;
25731;SDS011;13585;50.864;4.406;2023-06-14T05:12:42;7.50;;;5.00;;
25731;SDS011;13585;50.864;4.406;2023-06-14T05:15:08;6.82;;;5.10;;
25731;SDS011;13585;50.864;4.406;2023-06-14T05:17:35;6.00;;;5.40;;
25731;SDS011;13585;50.864;4.406;2023-06-14T05:20:01;5.85;;;4.75;;
25731;SDS011;13585;50.864;4.406;2023-06-14T05:22:30;6.72;;;4.80;;
25731;SDS011;13585;50.864;4.406;2023-06-14T05:24:56;8.57;;;5.32;;
25731;SDS011;13585;50.864;4.406;2023-06-14T05:27:22;7.18;;;4.68;;
25731;SDS011;13585;50.864;4.406;2023-06-14T05:29:47;7.22;;;5.13;;
25731;SDS011;13585;50.864;4.406;2023-06-14T05:32:13;8.02;;;4.88;;
25731;SDS011;13585;50.864;4.406;2023-06-14T05:34:39;13.13;;;5.03;;
25731;SDS011;13585;50.864;4.406;2023-06-14T05:37:05;6.57;;;4.72;;
25731;SDS011;13585;50.864;4.406;2023-06-14T05:39:33;7.63;;;5.18;;
25731;SDS011;13585;50.864;4.406;2023-06-14T05:41:59;7.85;;;4.85;;
25731;SDS011;13585;50.864;4.406;2023-06-14T05:44:24;6.50;;;5.07;;
25731;SDS011;13585;50.864;4.406;2023-06-14T05:46:50;8.80;;;5.22;;
25731;SDS011;13585;50.864;4.406;2023-06-14T05:49:15;8.07;;;5.00;;
25731;SDS011;13585;50.864;4.406;2023-06-14T05:51:41;9.82;;;5.47;;
25731;SDS011;13585;50.864;4.406;2023-06-14T05:54:07;6.10;;;5.03;;
25731;SDS011;13585;50.864;4.406;2023-06-14T05:56:32;6.68;;;5.47;;
25731;SDS011;13585;50.864;4.406;2023-06-14T05:58:58;9.15;;;5.38;;
25731;SDS011;13585;50.864;4.406;2023-06-14T06:01:23;9.35;;;5.32;;
25731;SDS011;13585;50.864;4.406;2023-06-14T06:03:50;8.55;;;5.47;;
25731;SDS011;13585;50.864;4.406;2023-06-14T06:06:15;7.65;;;5.20;;
25731;SDS011;13585;50.864;4.406;2023-06-14T06:08:42;9.63;;;5.43;;
25731;SDS011;13585;50.864;4.406;2023-06-14T06:11:07;7.32;;;5.18;;
25731;SDS011;13585;50.864;4.406;2023-06-14T06:13:33;12.13;;;5.13;;
25731;SDS011;13585;50.864;4.406;2023-06-14T06:16:00;9.13;;;5.90;;
25731;SDS011;13585;50.864;4.406;2023-06-14T06:18:26;11.07;;;5.88;;
25731;SDS011;13585;50.864;4.406;2023-06-14T06:20:51;7.07;;;5.47;;
25731;SDS011;13585;50.864;4.406;2023-06-14T06:23:17;15.93;;;6.25;;
25731;SDS011;13585;50.864;4.406;2023-06-14T06:25:42;10.38;;;5.75;;
25731;SDS011;13585;50.864;4.406;2023-06-14T06:28:08;8.63;;;5.25;;
25731;SDS011;13585;50.864;4.406;2023-06-14T06:30:34;8.00;;;6.10;;
25731;SDS011;13585;50.864;4.406;2023-06-14T06:33:01;9.43;;;5.80;;
25731;SDS011;13585;50.864;4.406;2023-06-14T06:35:27;7.60;;;5.45;;
25731;SDS011;13585;50.864;4.406;2023-06-14T06:37:52;7.28;;;5.28;;
25731;SDS011;13585;50.864;4.406;2023-06-14T06:40:18;8.38;;;5.63;;
25731;SDS011;13585;50.864;4.406;2023-06-14T06:42:43;10.48;;;5.80;;
25731;SDS011;13585;50.864;4.406;2023-06-14T06:45:09;6.93;;;5.38;;
25731;SDS011;13585;50.864;4.406;2023-06-14T06:47:35;9.25;;;5.07;;
25731;SDS011;13585;50.864;4.406;2023-06-14T06:50:00;8.00;;;5.20;;
25731;SDS011;13585;50.864;4.406;2023-06-14T06:52:26;9.98;;;5.55;;
25731;SDS011;13585;50.864;4.406;2023-06-14T06:54:52;9.55;;;5.50;;
25731;SDS011;13585;50.864;4.406;2023-06-14T06:57:20;6.28;;;4.97;;
25731;SDS011;13585;50.864;4.406;2023-06-14T06:59:47;9.55;;;5.50;;
25731;SDS011;13585;50.864;4.406;2023-06-14T07:02:13;8.85;;;5.72;;
25731;SDS011;13585;50.864;4.406;2023-06-14T07:04:39;6.10;;;5.32;;
25731;SDS011;13585;50.864;4.406;2023-06-14T07:07:05;10.43;;;5.20;;
25731;SDS011;13585;50.864;4.406;2023-06-14T07:09:30;11.25;;;5.40;;
25731;SDS011;13585;50.864;4.406;2023-06-14T07:11:56;7.30;;;5.10;;
25731;SDS011;13585;50.864;4.406;2023-06-14T07:14:21;10.15;;;5.22;;
25731;SDS011;13585;50.864;4.406;2023-06-14T07:16:48;6.85;;;4.88;;
25731;SDS011;13585;50.864;4.406;2023-06-14T07:19:14;9.32;;;5.45;;
25731;SDS011;13585;50.864;4.406;2023-06-14T07:21:40;9.55;;;5.45;;
25731;SDS011;13585;50.864;4.406;2023-06-14T07:24:06;11.45;;;5.38;;
25731;SDS011;13585;50.864;4.406;2023-06-14T07:26:33;9.55;;;5.22;;
25731;SDS011;13585;50.864;4.406;2023-06-14T07:28:58;9.82;;;5.35;;
25731;SDS011;13585;50.864;4.406;2023-06-14T07:31:24;11.82;;;5.63;;
25731;SDS011;13585;50.864;4.406;2023-06-14T07:33:51;12.13;;;5.25;;
25731;SDS011;13585;50.864;4.406;2023-06-14T07:36:17;10.15;;;5.10;;
25731;SDS011;13585;50.864;4.406;2023-06-14T07:38:43;12.90;;;5.38;;
25731;SDS011;13585;50.864;4.406;2023-06-14T07:41:09;6.65;;;4.90;;
25731;SDS011;13585;50.864;4.406;2023-06-14T07:43:34;9.27;;;4.95;;
25731;SDS011;13585;50.864;4.406;2023-06-14T07:46:00;8.00;;;4.90;;
25731;SDS011;13585;50.864;4.406;2023-06-14T07:48:27;11.13;;;5.00;;
25731;SDS011;13585;50.864;4.406;2023-06-14T07:50:58;13.65;;;5.20;;
25731;SDS011;13585;50.864;4.406;2023-06-14T07:53:24;9.07;;;4.57;;
25731;SDS011;13585;50.864;4.406;2023-06-14T07:55:50;9.57;;;5.30;;
25731;SDS011;13585;50.864;4.406;2023-06-14T07:58:16;8.95;;;5.13;;
25731;SDS011;13585;50.864;4.406;2023-06-14T08:00:42;6.45;;;5.00;;
25731;SDS011;13585;50.864;4.406;2023-06-14T08:03:07;8.38;;;4.40;;
25731;SDS011;13585;50.864;4.406;2023-06-14T08:05:33;10.77;;;5.15;;
25731;SDS011;13585;50.864;4.406;2023-06-14T08:07:59;8.63;;;5.05;;
25731;SDS011;13585;50.864;4.406;2023-06-14T08:10:25;9.02;;;5.05;;
25731;SDS011;13585;50.864;4.406;2023-06-14T08:12:50;7.10;;;4.60;;
25731;SDS011;13585;50.864;4.406;2023-06-14T08:15:16;8.05;;;4.78;;
25731;SDS011;13585;50.864;4.406;2023-06-14T08:17:43;8.23;;;4.97;;
25731;SDS011;13585;50.864;4.406;2023-06-14T08:20:09;6.35;;;4.60;;
25731;SDS011;13585;50.864;4.406;2023-06-14T08:22:36;6.82;;;4.75;;
25731;SDS011;13585;50.864;4.406;2023-06-14T08:25:02;8.20;;;4.82;;
25731;SDS011;13585;50.864;4.406;2023-06-14T08:27:28;7.47;;;4.78;;
25731;SDS011;13585;50.864;4.406;2023-06-14T08:29:54;11.57;;;5.07;;
25731;SDS011;13585;50.864;4.406;2023-06-14T08:32:21;5.85;;;4.43;;
25731;SDS011;13585;50.864;4.406;2023-06-14T08:34:46;7.43;;;5.07;;
25731;SDS011;13585;50.864;4.406;2023-06-14T08:37:12;6.75;;;4.45;;
25731;SDS011;13585;50.864;4.406;2023-06-14T08:39:38;8.80;;;4.97;;
25731;SDS011;13585;50.864;4.406;2023-06-14T08:42:04;6.07;;;4.70;;
25731;SDS011;13585;50.864;4.406;2023-06-14T08:44:32;7.20;;;4.60;;
25731;SDS011;13585;50.864;4.406;2023-06-14T08:46:59;8.02;;;4.53;;
25731;SDS011;13585;50.864;4.406;2023-06-14T08:49:25;9.65;;;4.55;;
25731;SDS011;13585;50.864;4.406;2023-06-14T08:51:57;6.55;;;4.60;;
25731;SDS011;13585;50.864;4.406;2023-06-14T08:54:25;5.88;;;4.55;;
25731;SDS011;13585;50.864;4.406;2023-06-14T08:56:55;8.77;;;4.57;;
25731;SDS011;13585;50.864;4.406;2023-06-14T08:59:27;6.90;;;4.57;;
25731;SDS011;13585;50.864;4.406;2023-06-14T09:01:53;9.18;;;4.82;;
25731;SDS011;13585;50.864;4.406;2023-06-14T09:04:23;8.50;;;4.60;;
25731;SDS011;13585;50.864;4.406;2023-06-14T09:06:54;8.07;;;4.70;;
25731;SDS011;13585;50.864;4.406;2023-06-14T09:09:20;9.10;;;4.47;;
25731;SDS011;13585;50.864;4.406;2023-06-14T09:11:49;7.35;;;4.50;;
25731;SDS011;13585;50.864;4.406;2023-06-14T09:14:15;7.32;;;4.78;;
25731;SDS011;13585;50.864;4.406;2023-06-14T09:16:41;8.93;;;4.78;;
25731;SDS011;13585;50.864;4.406;2023-06-14T09:19:06;7.80;;;5.07;;
25731;SDS011;13585;50.864;4.406;2023-06-14T09:21:35;5.40;;;4.57;;
25731;SDS011;13585;50.864;4.406;2023-06-14T09:24:06;7.07;;;4.50;;
25731;SDS011;13585;50.864;4.406;2023-06-14T09:26:38;8.45;;;4.47;;
25731;SDS011;13585;50.864;4.406;2023-06-14T09:29:05;6.53;;;4.40;;
25731;SDS011;13585;50.864;4.406;2023-06-14T09:31:31;6.97;;;4.32;;
25731;SDS011;13585;50.864;4.406;2023-06-14T09:33:58;6.35;;;4.40;;
25731;SDS011;13585;50.864;4.406;2023-06-14T09:36:30;7.35;;;4.07;;
25731;SDS011;13585;50.864;4.406;2023-06-14T09:38:57;6.88;;;4.63;;
25731;SDS011;13585;50.864;4.406;2023-06-14T09:41:38;8.07;;;4.70;;
25731;SDS011;13585;50.864;4.406;2023-06-14T09:44:06;8.57;;;4.75;;
25731;SDS011;13585;50.864;4.406;2023-06-14T09:46:33;7.05;;;4.80;;
25731;SDS011;13585;50.864;4.406;2023-06-14T09:49:00;6.57;;;4.47;;
25731;SDS011;13585;50.864;4.406;2023-06-14T09:51:29;13.30;;;4.70;;
25731;SDS011;13585;50.864;4.406;2023-06-14T09:53:57;5.80;;;4.28;;
25731;SDS011;13585;50.864;4.406;2023-06-14T09:56:26;7.80;;;4.80;;
25731;SDS011;13585;50.864;4.406;2023-06-14T09:58:55;5.90;;;4.43;;
25731;SDS011;13585;50.864;4.406;2023-06-14T10:01:22;5.95;;;4.30;;
25731;SDS011;13585;50.864;4.406;2023-06-14T10:03:50;8.63;;;4.63;;
25731;SDS011;13585;50.864;4.406;2023-06-14T10:06:24;7.30;;;4.75;;
25731;SDS011;13585;50.864;4.406;2023-06-14T10:08:52;5.93;;;4.18;;
25731;SDS011;13585;50.864;4.406;2023-06-14T10:11:20;6.10;;;3.95;;
25731;SDS011;13585;50.864;4.406;2023-06-14T10:13:46;8.00;;;4.20;;
25731;SDS011;13585;50.864;4.406;2023-06-14T10:16:15;5.20;;;3.90;;
25731;SDS011;13585;50.864;4.406;2023-06-14T10:21:50;7.00;;;4.35;;
25731;SDS011;13585;50.864;4.406;2023-06-14T10:24:22;7.00;;;4.45;;
25731;SDS011;13585;50.864;4.406;2023-06-14T10:26:58;6.60;;;3.90;;
25731;SDS011;13585;50.864;4.406;2023-06-14T10:29:27;5.95;;;4.20;;
25731;SDS011;13585;50.864;4.406;2023-06-14T10:31:57;5.53;;;3.92;;
25731;SDS011;13585;50.864;4.406;2023-06-14T10:34:25;9.50;;;4.38;;
25731;SDS011;13585;50.864;4.406;2023-06-14T10:39:40;4.85;;;3.97;;
25731;SDS011;13585;50.864;4.406;2023-06-14T10:42:07;12.32;;;4.40;;
25731;SDS011;13585;50.864;4.406;2023-06-14T10:44:34;5.43;;;4.50;;
25731;SDS011;13585;50.864;4.406;2023-06-14T10:47:07;8.85;;;4.00;;
25731;SDS011;13585;50.864;4.406;2023-06-14T10:49:51;5.50;;;3.80;;
25731;SDS011;13585;50.864;4.406;2023-06-14T10:52:21;6.03;;;4.32;;
25731;SDS011;13585;50.864;4.406;2023-06-14T10:57:38;4.88;;;4.03;;
25731;SDS011;13585;50.864;4.406;2023-06-14T11:00:05;7.10;;;4.10;;
25731;SDS011;13585;50.864;4.406;2023-06-14T11:05:10;5.40;;;3.83;;
25731;SDS011;13585;50.864;4.406;2023-06-14T11:12:45;5.78;;;3.92;;
25731;SDS011;13585;50.864;4.406;2023-06-14T11:15:13;8.15;;;3.97;;
25731;SDS011;13585;50.864;4.406;2023-06-14T11:17:39;5.47;;;3.88;;
25731;SDS011;13585;50.864;4.406;2023-06-14T11:20:14;7.00;;;4.00;;
25731;SDS011;13585;50.864;4.406;2023-06-14T11:22:52;5.50;;;3.92;;
25731;SDS011;13585;50.864;4.406;2023-06-14T11:25:19;7.85;;;4.22;;
25731;SDS011;13585;50.864;4.406;2023-06-14T11:27:45;5.32;;;3.78;;
25731;SDS011;13585;50.864;4.406;2023-06-14T11:30:20;4.65;;;3.72;;
25731;SDS011;13585;50.864;4.406;2023-06-14T11:32:46;4.53;;;3.88;;
25731;SDS011;13585;50.864;4.406;2023-06-14T11:35:16;5.25;;;4.35;;
25731;SDS011;13585;50.864;4.406;2023-06-14T11:37:43;5.95;;;3.70;;
25731;SDS011;13585;50.864;4.406;2023-06-14T11:40:12;5.63;;;4.22;;
25731;SDS011;13585;50.864;4.406;2023-06-14T11:42:39;5.35;;;3.70;;
25731;SDS011;13585;50.864;4.406;2023-06-14T11:45:09;6.65;;;3.92;;
25731;SDS011;13585;50.864;4.406;2023-06-14T11:47:36;6.90;;;4.05;;
25731;SDS011;13585;50.864;4.406;2023-06-14T11:50:03;6.05;;;4.00;;
25731;SDS011;13585;50.864;4.406;2023-06-14T11:52:32;5.50;;;4.45;;
25731;SDS011;13585;50.864;4.406;2023-06-14T11:54:58;5.97;;;3.70;;
25731;SDS011;13585;50.864;4.406;2023-06-14T11:57:24;9.68;;;3.70;;
25731;SDS011;13585;50.864;4.406;2023-06-14T11:59:50;5.93;;;3.75;;
25731;SDS011;13585;50.864;4.406;2023-06-14T12:02:16;5.78;;;3.13;;
25731;SDS011;13585;50.864;4.406;2023-06-14T12:04:44;9.40;;;4.20;;
25731;SDS011;13585;50.864;4.406;2023-06-14T12:07:13;5.25;;;3.78;;
25731;SDS011;13585;50.864;4.406;2023-06-14T12:12:24;7.07;;;3.78;;
25731;SDS011;13585;50.864;4.406;2023-06-14T12:14:51;7.50;;;3.30;;
25731;SDS011;13585;50.864;4.406;2023-06-14T12:17:18;6.75;;;3.47;;
25731;SDS011;13585;50.864;4.406;2023-06-14T12:19:48;5.75;;;3.45;;
25731;SDS011;13585;50.864;4.406;2023-06-14T12:22:15;4.63;;;3.60;;
25731;SDS011;13585;50.864;4.406;2023-06-14T12:24:47;7.32;;;3.45;;
25731;SDS011;13585;50.864;4.406;2023-06-14T12:27:13;5.35;;;3.60;;
25731;SDS011;13585;50.864;4.406;2023-06-14T12:29:41;7.05;;;3.35;;
25731;SDS011;13585;50.864;4.406;2023-06-14T12:32:10;8.38;;;3.60;;
25731;SDS011;13585;50.864;4.406;2023-06-14T12:34:39;8.13;;;3.60;;
25731;SDS011;13585;50.864;4.406;2023-06-14T12:37:05;5.13;;;3.38;;
25731;SDS011;13585;50.864;4.406;2023-06-14T12:39:31;5.28;;;3.40;;
25731;SDS011;13585;50.864;4.406;2023-06-14T12:41:57;6.63;;;3.35;;
25731;SDS011;13585;50.864;4.406;2023-06-14T12:44:24;5.65;;;3.35;;
25731;SDS011;13585;50.864;4.406;2023-06-14T12:46:49;7.38;;;3.70;;
25731;SDS011;13585;50.864;4.406;2023-06-14T12:49:17;6.43;;;3.50;;
25731;SDS011;13585;50.864;4.406;2023-06-14T12:51:43;4.50;;;3.25;;
25731;SDS011;13585;50.864;4.406;2023-06-14T12:54:08;5.88;;;3.35;;
25731;SDS011;13585;50.864;4.406;2023-06-14T12:56:34;8.07;;;3.60;;
25731;SDS011;13585;50.864;4.406;2023-06-14T12:59:00;7.18;;;3.38;;
25731;SDS011;13585;50.864;4.406;2023-06-14T13:01:25;5.47;;;3.42;;
25731;SDS011;13585;50.864;4.406;2023-06-14T13:03:51;4.80;;;2.97;;
25731;SDS011;13585;50.864;4.406;2023-06-14T13:06:20;5.75;;;3.40;;
25731;SDS011;13585;50.864;4.406;2023-06-14T13:08:49;3.78;;;3.17;;
25731;SDS011;13585;50.864;4.406;2023-06-14T13:11:18;5.93;;;2.88;;
25731;SDS011;13585;50.864;4.406;2023-06-14T13:13:46;6.45;;;2.88;;
25731;SDS011;13585;50.864;4.406;2023-06-14T13:16:12;5.38;;;2.85;;
25731;SDS011;13585;50.864;4.406;2023-06-14T13:18:39;6.15;;;3.25;;
25731;SDS011;13585;50.864;4.406;2023-06-14T13:21:05;6.07;;;3.10;;
25731;SDS011;13585;50.864;4.406;2023-06-14T13:23:30;6.80;;;2.90;;
25731;SDS011;13585;50.864;4.406;2023-06-14T13:25:57;6.45;;;3.10;;
25731;SDS011;13585;50.864;4.406;2023-06-14T13:28:23;4.82;;;3.00;;
25731;SDS011;13585;50.864;4.406;2023-06-14T13:31:00;3.90;;;2.70;;
25731;SDS011;13585;50.864;4.406;2023-06-14T13:33:28;4.35;;;2.60;;
25731;SDS011;13585;50.864;4.406;2023-06-14T13:35:54;5.30;;;2.50;;
25731;SDS011;13585;50.864;4.406;2023-06-14T13:38:20;3.80;;;2.55;;
25731;SDS011;13585;50.864;4.406;2023-06-14T13:40:45;4.95;;;2.65;;
25731;SDS011;13585;50.864;4.406;2023-06-14T13:43:11;4.53;;;2.75;;
25731;SDS011;13585;50.864;4.406;2023-06-14T13:45:37;5.82;;;2.88;;
25731;SDS011;13585;50.864;4.406;2023-06-14T13:48:03;5.35;;;2.80;;
25731;SDS011;13585;50.864;4.406;2023-06-14T13:50:29;6.28;;;2.53;;
25731;SDS011;13585;50.864;4.406;2023-06-14T13:52:54;6.03;;;2.80;;
25731;SDS011;13585;50.864;4.406;2023-06-14T13:55:20;4.05;;;2.30;;
25731;SDS011;13585;50.864;4.406;2023-06-14T13:57:46;4.10;;;2.63;;
25731;SDS011;13585;50.864;4.406;2023-06-14T14:00:12;4.57;;;2.47;;
25731;SDS011;13585;50.864;4.406;2023-06-14T14:02:38;4.78;;;2.50;;
25731;SDS011;13585;50.864;4.406;2023-06-14T14:05:05;4.68;;;2.17;;
25731;SDS011;13585;50.864;4.406;2023-06-14T14:07:33;5.82;;;2.63;;
25731;SDS011;13585;50.864;4.406;2023-06-14T14:10:05;4.05;;;2.30;;
25731;SDS011;13585;50.864;4.406;2023-06-14T14:12:53;3.72;;;2.30;;
25731;SDS011;13585;50.864;4.406;2023-06-14T14:15:22;4.97;;;2.20;;
25731;SDS011;13585;50.864;4.406;2023-06-14T14:17:47;5.35;;;2.03;;
25731;SDS011;13585;50.864;4.406;2023-06-14T14:20:13;4.40;;;2.40;;
25731;SDS011;13585;50.864;4.406;2023-06-14T14:22:46;4.93;;;2.00;;
25731;SDS011;13585;50.864;4.406;2023-06-14T14:25:18;4.97;;;1.95;;
25731;SDS011;13585;50.864;4.406;2023-06-14T14:27:43;3.38;;;2.00;;
25731;SDS011;13585;50.864;4.406;2023-06-14T14:30:12;2.85;;;1.83;;
25731;SDS011;13585;50.864;4.406;2023-06-14T14:32:39;2.80;;;1.85;;
25731;SDS011;13585;50.864;4.406;2023-06-14T14:35:05;4.32;;;1.75;;
25731;SDS011;13585;50.864;4.406;2023-06-14T14:37:31;4.03;;;1.52;;
25731;SDS011;13585;50.864;4.406;2023-06-14T14:39:57;2.92;;;1.77;;
25731;SDS011;13585;50.864;4.406;2023-06-14T14:42:23;1.90;;;1.45;;
25731;SDS011;13585;50.864;4.406;2023-06-14T14:44:48;2.00;;;1.73;;
25731;SDS011;13585;50.864;4.406;2023-06-14T14:47:14;6.88;;;1.70;;
25731;SDS011;13585;50.864;4.406;2023-06-14T14:49:39;2.25;;;1.45;;
25731;SDS011;13585;50.864;4.406;2023-06-14T14:52:06;4.43;;;1.38;;
25731;SDS011;13585;50.864;4.406;2023-06-14T14:54:32;3.25;;;1.38;;
25731;SDS011;13585;50.864;4.406;2023-06-14T14:56:58;4.30;;;1.35;;
25731;SDS011;13585;50.864;4.406;2023-06-14T14:59:23;4.13;;;1.40;;
25731;SDS011;13585;50.864;4.406;2023-06-14T15:01:49;3.50;;;1.52;;
25731;SDS011;13585;50.864;4.406;2023-06-14T15:04:15;4.10;;;1.50;;
25731;SDS011;13585;50.864;4.406;2023-06-14T15:06:41;3.65;;;1.40;;
25731;SDS011;13585;50.864;4.406;2023-06-14T15:09:07;2.72;;;1.42;;
25731;SDS011;13585;50.864;4.406;2023-06-14T15:11:33;6.90;;;2.10;;